sensor_id;sensor_type;location;lat;lon;timestamp;pressure;altitude;pressure_sealevel;temperature;humidity
64675;BME280;51090;51.512;11.332;2023-03-08T00:01:52;97725.34;;;5.50;100.00
64675;BME280;51090;51.512;11.332;2023-03-08T00:04:19;97726.34;;;5.49;100.00
64675;BME280;51090;51.512;11.332;2023-03-08T00:06:45;97733.22;;;5.50;100.00
64675;BME280;51090;51.512;11.332;2023-03-08T00:09:11;97708.09;;;5.41;100.00
64675;BME280;51090;51.512;11.332;2023-03-08T00:11:37;97732.63;;;5.55;100.00
64675;BME280;51090;51.512;11.332;2023-03-08T00:14:03;97729.44;;;5.59;100.00
64675;BME280;51090;51.512;11.332;2023-03-08T00:16:30;97725.19;;;5.58;100.00
64675;BME280;51090;51.512;11.332;2023-03-08T00:18:56;97729.81;;;5.56;100.00
64675;BME280;51090;51.512;11.332;2023-03-08T00:21:22;97727.81;;;5.58;99.56
64675;BME280;51090;51.512;11.332;2023-03-08T00:23:52;97732.69;;;5.61;99.25
64675;BME280;51090;51.512;11.332;2023-03-08T00:26:21;97747.81;;;5.53;99.01
64675;BME280;51090;51.512;11.332;2023-03-08T00:28:48;97749.00;;;5.50;99.39
64675;BME280;51090;51.512;11.332;2023-03-08T00:31:14;97738.84;;;5.47;99.40
64675;BME280;51090;51.512;11.332;2023-03-08T00:33:40;97744.13;;;5.47;99.42
64675;BME280;51090;51.512;11.332;2023-03-08T00:36:13;97752.44;;;5.51;98.78
64675;BME280;51090;51.512;11.332;2023-03-08T00:38:40;97755.50;;;5.54;97.54
64675;BME280;51090;51.512;11.332;2023-03-08T00:41:06;97776.69;;;5.81;97.55
64675;BME280;51090;51.512;11.332;2023-03-08T00:43:33;97773.50;;;5.92;94.73
64675;BME280;51090;51.512;11.332;2023-03-08T00:45:59;97774.78;;;5.96;94.21
64675;BME280;51090;51.512;11.332;2023-03-08T00:48:26;97759.25;;;5.80;93.94
64675;BME280;51090;51.512;11.332;2023-03-08T00:50:52;97766.41;;;5.51;98.31
64675;BME280;51090;51.512;11.332;2023-03-08T00:53:19;97770.41;;;5.47;98.86
64675;BME280;51090;51.512;11.332;2023-03-08T00:55:53;97772.03;;;5.48;98.80
64675;BME280;51090;51.512;11.332;2023-03-08T00:58:21;97774.84;;;5.40;98.84
64675;BME280;51090;51.512;11.332;2023-03-08T01:00:48;97779.22;;;5.33;99.00
64675;BME280;51090;51.512;11.332;2023-03-08T01:03:15;97774.34;;;5.30;98.74
64675;BME280;51090;51.512;11.332;2023-03-08T01:05:45;97775.56;;;5.27;98.58
64675;BME280;51090;51.512;11.332;2023-03-08T01:08:13;97775.50;;;5.20;99.17
64675;BME280;51090;51.512;11.332;2023-03-08T01:10:40;97779.88;;;5.13;99.17
64675;BME280;51090;51.512;11.332;2023-03-08T01:13:12;97777.22;;;5.07;99.25
64675;BME280;51090;51.512;11.332;2023-03-08T01:15:37;97782.41;;;5.00;99.42
64675;BME280;51090;51.512;11.332;2023-03-08T01:18:05;97778.41;;;5.04;99.69
64675;BME280;51090;51.512;11.332;2023-03-08T01:20:32;97781.44;;;5.01;100.00
64675;BME280;51090;51.512;11.332;2023-03-08T01:22:58;97780.16;;;4.97;100.00
64675;BME280;51090;51.512;11.332;2023-03-08T01:25:24;97771.91;;;5.00;100.00
64675;BME280;51090;51.512;11.332;2023-03-08T01:27:50;97775.78;;;5.04;100.00
64675;BME280;51090;51.512;11.332;2023-03-08T01:30:17;97771.50;;;5.03;100.00
64675;BME280;51090;51.512;11.332;2023-03-08T01:32:43;97767.69;;;5.06;99.46
64675;BME280;51090;51.512;11.332;2023-03-08T01:35:09;97767.91;;;5.04;99.79
64675;BME280;51090;51.512;11.332;2023-03-08T01:37:35;97772.91;;;4.99;100.00
64675;BME280;51090;51.512;11.332;2023-03-08T01:40:02;97757.97;;;4.99;100.00
64675;BME280;51090;51.512;11.332;2023-03-08T01:42:29;97756.91;;;4.94;100.00
64675;BME280;51090;51.512;11.332;2023-03-08T01:45:00;97757.16;;;4.99;100.00
64675;BME280;51090;51.512;11.332;2023-03-08T01:47:32;97746.66;;;4.99;100.00
64675;BME280;51090;51.512;11.332;2023-03-08T01:50:06;97755.63;;;5.11;100.00
64675;BME280;51090;51.512;11.332;2023-03-08T01:52:47;97759.41;;;5.02;97.66
64675;BME280;51090;51.512;11.332;2023-03-08T01:55:15;97765.19;;;4.91;97.66
64675;BME280;51090;51.512;11.332;2023-03-08T01:57:52;97764.53;;;4.89;98.32
64675;BME280;51090;51.512;11.332;2023-03-08T02:00:21;97769.16;;;4.87;99.23
64675;BME280;51090;51.512;11.332;2023-03-08T02:03:09;97764.34;;;4.90;99.54
64675;BME280;51090;51.512;11.332;2023-03-08T02:05:41;97759.69;;;4.86;99.79
64675;BME280;51090;51.512;11.332;2023-03-08T02:08:08;97743.22;;;4.77;100.00
64675;BME280;51090;51.512;11.332;2023-03-08T02:10:34;97739.84;;;4.83;100.00
64675;BME280;51090;51.512;11.332;2023-03-08T02:13:05;97727.78;;;4.89;99.94
64675;BME280;51090;51.512;11.332;2023-03-08T02:15:32;97728.47;;;4.76;100.00
64675;BME280;51090;51.512;11.332;2023-03-08T02:17:58;97749.16;;;4.86;100.00
64675;BME280;51090;51.512;11.332;2023-03-08T02:20:37;97750.06;;;4.99;99.88
64675;BME280;51090;51.512;11.332;2023-03-08T02:23:12;97747.44;;;4.99;100.00
64675;BME280;51090;51.512;11.332;2023-03-08T02:25:39;97748.66;;;4.97;100.00
64675;BME280;51090;51.512;11.332;2023-03-08T02:28:06;97759.56;;;5.00;100.00
64675;BME280;51090;51.512;11.332;2023-03-08T02:30:36;97753.56;;;5.07;100.00
64675;BME280;51090;51.512;11.332;2023-03-08T02:33:03;97750.16;;;5.06;100.00
64675;BME280;51090;51.512;11.332;2023-03-08T02:35:29;97750.56;;;5.10;100.00
64675;BME280;51090;51.512;11.332;2023-03-08T02:37:55;97738.00;;;5.05;100.00
64675;BME280;51090;51.512;11.332;2023-03-08T02:40:21;97756.06;;;5.15;100.00
64675;BME280;51090;51.512;11.332;2023-03-08T02:42:48;97750.63;;;5.16;99.99
64675;BME280;51090;51.512;11.332;2023-03-08T02:45:14;97745.97;;;5.18;99.75
64675;BME280;51090;51.512;11.332;2023-03-08T02:47:40;97741.06;;;5.09;97.89
64675;BME280;51090;51.512;11.332;2023-03-08T02:50:08;97743.56;;;4.95;96.33
64675;BME280;51090;51.512;11.332;2023-03-08T02:52:34;97743.69;;;4.80;96.10
64675;BME280;51090;51.512;11.332;2023-03-08T02:55:00;97745.19;;;4.68;95.68
64675;BME280;51090;51.512;11.332;2023-03-08T02:57:26;97741.03;;;4.59;96.66
64675;BME280;51090;51.512;11.332;2023-03-08T02:59:55;97744.19;;;4.48;97.16
64675;BME280;51090;51.512;11.332;2023-03-08T03:02:21;97723.41;;;4.31;96.06
64675;BME280;51090;51.512;11.332;2023-03-08T03:04:47;97747.69;;;4.19;95.49
64675;BME280;51090;51.512;11.332;2023-03-08T03:07:13;97750.66;;;4.09;96.07
64675;BME280;51090;51.512;11.332;2023-03-08T03:09:39;97745.22;;;3.96;97.00
64675;BME280;51090;51.512;11.332;2023-03-08T03:12:05;97750.78;;;3.86;97.50
64675;BME280;51090;51.512;11.332;2023-03-08T03:14:31;97742.75;;;3.73;97.14
64675;BME280;51090;51.512;11.332;2023-03-08T03:16:57;97742.66;;;3.66;96.94
64675;BME280;51090;51.512;11.332;2023-03-08T03:19:23;97739.88;;;3.53;97.17
64675;BME280;51090;51.512;11.332;2023-03-08T03:21:49;97744.38;;;3.44;97.15
64675;BME280;51090;51.512;11.332;2023-03-08T03:24:15;97713.28;;;3.11;96.68
64675;BME280;51090;51.512;11.332;2023-03-08T03:26:41;97740.84;;;3.22;95.60
64675;BME280;51090;51.512;11.332;2023-03-08T03:29:06;97749.88;;;3.19;95.54
64675;BME280;51090;51.512;11.332;2023-03-08T03:31:32;97740.94;;;3.14;94.72
64675;BME280;51090;51.512;11.332;2023-03-08T03:33:58;97757.06;;;3.02;94.39
64675;BME280;51090;51.512;11.332;2023-03-08T03:36:24;97759.59;;;2.96;93.63
64675;BME280;51090;51.512;11.332;2023-03-08T03:38:50;97750.63;;;2.90;93.41
64675;BME280;51090;51.512;11.332;2023-03-08T03:41:20;97751.78;;;2.88;92.89
64675;BME280;51090;51.512;11.332;2023-03-08T03:43:46;97749.59;;;2.76;93.27
64675;BME280;51090;51.512;11.332;2023-03-08T03:46:15;97761.53;;;2.79;92.99
64675;BME280;51090;51.512;11.332;2023-03-08T03:48:42;97748.69;;;2.69;92.60
64675;BME280;51090;51.512;11.332;2023-03-08T03:51:14;97743.00;;;2.66;92.15
64675;BME280;51090;51.512;11.332;2023-03-08T03:53:41;97748.22;;;2.66;93.14
64675;BME280;51090;51.512;11.332;2023-03-08T03:56:23;97759.78;;;2.71;89.98
64675;BME280;51090;51.512;11.332;2023-03-08T03:58:50;97762.34;;;2.56;91.45
64675;BME280;51090;51.512;11.332;2023-03-08T04:01:23;97757.75;;;2.58;92.07
64675;BME280;51090;51.512;11.332;2023-03-08T04:03:49;97753.47;;;2.66;91.16
64675;BME280;51090;51.512;11.332;2023-03-08T04:06:28;97743.06;;;2.57;92.36
64675;BME280;51090;51.512;11.332;2023-03-08T04:09:00;97742.06;;;2.58;92.24
64675;BME280;51090;51.512;11.332;2023-03-08T04:11:31;97748.66;;;2.54;91.82
64675;BME280;51090;51.512;11.332;2023-03-08T04:13:57;97739.75;;;2.40;91.60
64675;BME280;51090;51.512;11.332;2023-03-08T04:16:26;97746.56;;;2.50;91.18
64675;BME280;51090;51.512;11.332;2023-03-08T04:18:55;97710.44;;;2.22;91.66
64675;BME280;51090;51.512;11.332;2023-03-08T04:21:21;97707.88;;;2.14;91.72
64675;BME280;51090;51.512;11.332;2023-03-08T04:23:47;97745.84;;;2.33;90.52
64675;BME280;51090;51.512;11.332;2023-03-08T04:26:13;97750.31;;;2.24;90.53
64675;BME280;51090;51.512;11.332;2023-03-08T04:28:40;97746.25;;;2.22;89.51
64675;BME280;51090;51.512;11.332;2023-03-08T04:31:20;97747.06;;;2.22;89.45
64675;BME280;51090;51.512;11.332;2023-03-08T04:33:47;97741.00;;;1.99;89.58
64675;BME280;51090;51.512;11.332;2023-03-08T04:36:14;97757.31;;;2.01;90.60
64675;BME280;51090;51.512;11.332;2023-03-08T04:38:41;97753.25;;;1.98;90.87
64675;BME280;51090;51.512;11.332;2023-03-08T04:41:07;97752.94;;;1.93;90.45
64675;BME280;51090;51.512;11.332;2023-03-08T04:43:52;97762.38;;;2.02;90.78
64675;BME280;51090;51.512;11.332;2023-03-08T04:46:25;97747.03;;;1.99;90.64
64675;BME280;51090;51.512;11.332;2023-03-08T04:48:51;97742.41;;;2.09;90.19
64675;BME280;51090;51.512;11.332;2023-03-08T04:51:19;97751.25;;;2.00;92.33
64675;BME280;51090;51.512;11.332;2023-03-08T04:53:45;97763.66;;;2.06;92.33
64675;BME280;51090;51.512;11.332;2023-03-08T04:56:13;97757.38;;;2.15;91.87
64675;BME280;51090;51.512;11.332;2023-03-08T04:58:40;97767.84;;;2.15;91.23
64675;BME280;51090;51.512;11.332;2023-03-08T05:01:16;97758.31;;;2.23;89.09
64675;BME280;51090;51.512;11.332;2023-03-08T05:03:43;97759.50;;;2.20;90.35
64675;BME280;51090;51.512;11.332;2023-03-08T05:06:10;97755.72;;;2.23;90.39
64675;BME280;51090;51.512;11.332;2023-03-08T05:08:37;97738.47;;;2.13;90.78
64675;BME280;51090;51.512;11.332;2023-03-08T05:11:03;97741.03;;;2.22;90.74
64675;BME280;51090;51.512;11.332;2023-03-08T05:13:33;97747.81;;;2.31;90.31
64675;BME280;51090;51.512;11.332;2023-03-08T05:15:59;97750.44;;;2.31;91.49
64675;BME280;51090;51.512;11.332;2023-03-08T05:18:25;97739.09;;;2.38;91.89
64675;BME280;51090;51.512;11.332;2023-03-08T05:21:01;97741.09;;;2.59;91.00
64675;BME280;51090;51.512;11.332;2023-03-08T05:23:28;97739.09;;;2.61;91.06
64675;BME280;51090;51.512;11.332;2023-03-08T05:25:56;97740.53;;;2.64;89.96
64675;BME280;51090;51.512;11.332;2023-03-08T05:28:25;97743.75;;;2.51;88.40
64675;BME280;51090;51.512;11.332;2023-03-08T05:31:06;97739.06;;;2.47;89.53
64675;BME280;51090;51.512;11.332;2023-03-08T05:33:34;97743.06;;;2.34;91.30
64675;BME280;51090;51.512;11.332;2023-03-08T05:36:01;97745.19;;;2.31;92.60
64675;BME280;51090;51.512;11.332;2023-03-08T05:38:27;97745.03;;;2.32;92.96
64675;BME280;51090;51.512;11.332;2023-03-08T05:40:53;97738.81;;;2.33;94.15
64675;BME280;51090;51.512;11.332;2023-03-08T05:43:19;97732.53;;;2.43;94.73
64675;BME280;51090;51.512;11.332;2023-03-08T05:46:10;97732.97;;;2.69;93.98
64675;BME280;51090;51.512;11.332;2023-03-08T05:48:36;97731.53;;;2.67;94.91
64675;BME280;51090;51.512;11.332;2023-03-08T05:51:15;97722.03;;;2.89;94.65
64675;BME280;51090;51.512;11.332;2023-03-08T05:53:41;97716.06;;;2.95;95.28
64675;BME280;51090;51.512;11.332;2023-03-08T05:56:12;97701.91;;;3.04;94.58
64675;BME280;51090;51.512;11.332;2023-03-08T05:58:39;97711.13;;;3.15;93.90
64675;BME280;51090;51.512;11.332;2023-03-08T06:01:17;97719.16;;;3.28;92.16
64675;BME280;51090;51.512;11.332;2023-03-08T06:03:44;97732.00;;;3.67;89.12
64675;BME280;51090;51.512;11.332;2023-03-08T06:06:11;97744.38;;;3.74;89.21
64675;BME280;51090;51.512;11.332;2023-03-08T06:08:36;97722.41;;;3.30;92.80
64675;BME280;51090;51.512;11.332;2023-03-08T06:11:03;97726.59;;;3.39;93.42
64675;BME280;51090;51.512;11.332;2023-03-08T06:13:29;97722.78;;;3.42;93.50
64675;BME280;51090;51.512;11.332;2023-03-08T06:15:57;97723.13;;;3.54;92.71
64675;BME280;51090;51.512;11.332;2023-03-08T06:18:23;97727.03;;;3.58;93.47
64675;BME280;51090;51.512;11.332;2023-03-08T06:21:04;97736.41;;;3.82;91.95
64675;BME280;51090;51.512;11.332;2023-03-08T06:23:33;97751.94;;;4.34;88.41
64675;BME280;51090;51.512;11.332;2023-03-08T06:25:59;97730.50;;;3.95;91.82
64675;BME280;51090;51.512;11.332;2023-03-08T06:28:27;97732.81;;;4.04;92.04
64675;BME280;51090;51.512;11.332;2023-03-08T06:30:53;97725.75;;;4.05;91.24
64675;BME280;51090;51.512;11.332;2023-03-08T06:33:22;97730.09;;;4.12;91.05
64675;BME280;51090;51.512;11.332;2023-03-08T06:36:07;97730.44;;;4.24;89.86
64675;BME280;51090;51.512;11.332;2023-03-08T06:38:36;97729.03;;;4.28;90.24
64675;BME280;51090;51.512;11.332;2023-03-08T06:41:02;97722.97;;;4.28;91.49
64675;BME280;51090;51.512;11.332;2023-03-08T06:43:29;97724.94;;;4.41;91.40
64675;BME280;51090;51.512;11.332;2023-03-08T06:45:55;97727.25;;;4.50;90.40
64675;BME280;51090;51.512;11.332;2023-03-08T06:48:22;97718.81;;;4.55;90.03
64675;BME280;51090;51.512;11.332;2023-03-08T06:50:48;97721.31;;;4.63;90.79
64675;BME280;51090;51.512;11.332;2023-03-08T06:53:15;97710.28;;;4.74;89.69
64675;BME280;51090;51.512;11.332;2023-03-08T06:55:41;97716.16;;;4.76;89.75
64675;BME280;51090;51.512;11.332;2023-03-08T06:58:07;97719.03;;;4.82;90.10
64675;BME280;51090;51.512;11.332;2023-03-08T07:00:33;97723.75;;;4.93;89.76
64675;BME280;51090;51.512;11.332;2023-03-08T07:03:00;97725.88;;;5.04;89.83
64675;BME280;51090;51.512;11.332;2023-03-08T07:05:26;97724.94;;;5.18;89.75
64675;BME280;51090;51.512;11.332;2023-03-08T07:07:52;97722.59;;;5.30;89.74
64675;BME280;51090;51.512;11.332;2023-03-08T07:10:19;97716.63;;;5.50;89.11
64675;BME280;51090;51.512;11.332;2023-03-08T07:12:47;97715.69;;;5.64;88.54
64675;BME280;51090;51.512;11.332;2023-03-08T07:15:18;97711.91;;;5.73;87.65
64675;BME280;51090;51.512;11.332;2023-03-08T07:17:49;97712.75;;;5.87;86.29
64675;BME280;51090;51.512;11.332;2023-03-08T07:20:18;97709.56;;;5.98;86.71
64675;BME280;51090;51.512;11.332;2023-03-08T07:22:45;97709.22;;;6.08;86.90
64675;BME280;51090;51.512;11.332;2023-03-08T07:25:12;97709.66;;;6.25;85.62
64675;BME280;51090;51.512;11.332;2023-03-08T07:27:38;97710.47;;;6.25;83.59
64675;BME280;51090;51.512;11.332;2023-03-08T07:30:05;97706.44;;;6.29;82.24
64675;BME280;51090;51.512;11.332;2023-03-08T07:32:34;97714.94;;;6.31;82.37
64675;BME280;51090;51.512;11.332;2023-03-08T07:35:01;97703.41;;;6.39;83.49
64675;BME280;51090;51.512;11.332;2023-03-08T07:37:26;97705.47;;;6.50;82.80
64675;BME280;51090;51.512;11.332;2023-03-08T07:39:53;97704.03;;;6.61;83.10
64675;BME280;51090;51.512;11.332;2023-03-08T07:42:18;97694.72;;;6.72;83.75
64675;BME280;51090;51.512;11.332;2023-03-08T07:44:45;97682.16;;;6.94;81.18
64675;BME280;51090;51.512;11.332;2023-03-08T07:47:10;97689.66;;;6.97;80.57
64675;BME280;51090;51.512;11.332;2023-03-08T07:49:36;97687.44;;;6.94;79.08
64675;BME280;51090;51.512;11.332;2023-03-08T07:52:02;97663.09;;;6.85;81.00
64675;BME280;51090;51.512;11.332;2023-03-08T07:54:28;97685.34;;;7.16;82.15
64675;BME280;51090;51.512;11.332;2023-03-08T07:56:54;97680.63;;;7.45;81.86
64675;BME280;51090;51.512;11.332;2023-03-08T07:59:21;97689.47;;;7.70;82.01
64675;BME280;51090;51.512;11.332;2023-03-08T08:01:47;97689.19;;;7.92;81.55
64675;BME280;51090;51.512;11.332;2023-03-08T08:04:13;97681.38;;;8.10;79.86
64675;BME280;51090;51.512;11.332;2023-03-08T08:06:39;97673.19;;;8.18;80.43
64675;BME280;51090;51.512;11.332;2023-03-08T08:09:07;97680.13;;;8.51;79.54
64675;BME280;51090;51.512;11.332;2023-03-08T08:11:33;97685.47;;;8.69;79.87
64675;BME280;51090;51.512;11.332;2023-03-08T08:14:00;97679.09;;;9.02;78.77
64675;BME280;51090;51.512;11.332;2023-03-08T08:16:26;97677.88;;;9.23;77.42
64675;BME280;51090;51.512;11.332;2023-03-08T08:18:52;97665.44;;;9.42;76.23
64675;BME280;51090;51.512;11.332;2023-03-08T08:21:19;97661.50;;;9.51;75.11
64675;BME280;51090;51.512;11.332;2023-03-08T08:23:45;97664.19;;;9.63;74.30
64675;BME280;51090;51.512;11.332;2023-03-08T08:26:14;97648.38;;;9.75;73.01
64675;BME280;51090;51.512;11.332;2023-03-08T08:28:42;97659.69;;;9.82;73.45
64675;BME280;51090;51.512;11.332;2023-03-08T08:31:14;97649.25;;;9.87;71.01
64675;BME280;51090;51.512;11.332;2023-03-08T08:33:40;97644.53;;;9.71;71.76
64675;BME280;51090;51.512;11.332;2023-03-08T08:36:12;97638.84;;;9.74;71.94
64675;BME280;51090;51.512;11.332;2023-03-08T08:38:39;97641.34;;;9.69;72.69
64675;BME280;51090;51.512;11.332;2023-03-08T08:41:07;97630.66;;;9.75;72.59
64675;BME280;51090;51.512;11.332;2023-03-08T08:43:35;97627.34;;;9.80;72.50
64675;BME280;51090;51.512;11.332;2023-03-08T08:46:03;97632.25;;;9.95;71.63
64675;BME280;51090;51.512;11.332;2023-03-08T08:48:29;97629.06;;;9.86;69.61
64675;BME280;51090;51.512;11.332;2023-03-08T08:50:58;97631.97;;;9.85;71.29
64675;BME280;51090;51.512;11.332;2023-03-08T08:53:25;97620.13;;;9.87;69.76
64675;BME280;51090;51.512;11.332;2023-03-08T08:55:50;97619.84;;;9.77;70.34
64675;BME280;51090;51.512;11.332;2023-03-08T08:58:17;97626.44;;;9.86;70.87
64675;BME280;51090;51.512;11.332;2023-03-08T09:00:43;97607.56;;;9.82;70.64
64675;BME280;51090;51.512;11.332;2023-03-08T09:03:09;97621.78;;;10.00;70.04
64675;BME280;51090;51.512;11.332;2023-03-08T09:05:40;97621.78;;;10.12;69.14
64675;BME280;51090;51.512;11.332;2023-03-08T09:08:06;97625.63;;;10.16;70.17
64675;BME280;51090;51.512;11.332;2023-03-08T09:10:38;97617.81;;;10.21;68.18
64675;BME280;51090;51.512;11.332;2023-03-08T09:13:05;97619.53;;;10.15;69.86
64675;BME280;51090;51.512;11.332;2023-03-08T09:15:31;97611.44;;;10.10;69.83
64675;BME280;51090;51.512;11.332;2023-03-08T09:17:57;97618.13;;;10.13;69.84
64675;BME280;51090;51.512;11.332;2023-03-08T09:20:22;97622.84;;;10.11;70.20
64675;BME280;51090;51.512;11.332;2023-03-08T09:22:48;97606.81;;;10.06;69.39
64675;BME280;51090;51.512;11.332;2023-03-08T09:25:14;97606.56;;;9.95;69.37
64675;BME280;51090;51.512;11.332;2023-03-08T09:27:41;97599.28;;;9.91;68.69
64675;BME280;51090;51.512;11.332;2023-03-08T09:30:16;97612.31;;;9.92;68.67
64675;BME280;51090;51.512;11.332;2023-03-08T09:32:42;97598.28;;;9.92;71.23
64675;BME280;51090;51.512;11.332;2023-03-08T09:35:08;97594.50;;;9.99;70.54
64675;BME280;51090;51.512;11.332;2023-03-08T09:37:34;97597.41;;;10.10;70.39
64675;BME280;51090;51.512;11.332;2023-03-08T09:40:00;97585.31;;;10.14;70.08
64675;BME280;51090;51.512;11.332;2023-03-08T09:42:30;97588.66;;;10.21;67.61
64675;BME280;51090;51.512;11.332;2023-03-08T09:45:02;97585.56;;;10.24;69.33
64675;BME280;51090;51.512;11.332;2023-03-08T09:50:41;97572.84;;;10.33;66.69
64675;BME280;51090;51.512;11.332;2023-03-08T09:53:33;97568.00;;;10.41;66.95
64675;BME280;51090;51.512;11.332;2023-03-08T10:01:46;97552.31;;;10.52;65.76
64675;BME280;51090;51.512;11.332;2023-03-08T10:10:58;97526.28;;;10.60;66.83
64675;BME280;51090;51.512;11.332;2023-03-08T10:13:40;97516.34;;;10.79;66.16
64675;BME280;51090;51.512;11.332;2023-03-08T10:16:26;97509.28;;;10.97;65.11
64675;BME280;51090;51.512;11.332;2023-03-08T10:19:21;97497.53;;;10.93;62.14
64675;BME280;51090;51.512;11.332;2023-03-08T10:21:51;97503.53;;;11.00;65.90
64675;BME280;51090;51.512;11.332;2023-03-08T10:27:25;97495.28;;;11.13;62.97
64675;BME280;51090;51.512;11.332;2023-03-08T10:29:55;97489.88;;;11.08;64.45
64675;BME280;51090;51.512;11.332;2023-03-08T10:32:21;97482.06;;;11.01;65.06
64675;BME280;51090;51.512;11.332;2023-03-08T10:34:48;97478.13;;;11.04;64.88
64675;BME280;51090;51.512;11.332;2023-03-08T10:37:14;97473.50;;;11.11;65.02
64675;BME280;51090;51.512;11.332;2023-03-08T10:39:52;97463.56;;;11.18;60.04
64675;BME280;51090;51.512;11.332;2023-03-08T10:42:23;97460.22;;;11.11;63.84
64675;BME280;51090;51.512;11.332;2023-03-08T10:44:57;97452.59;;;11.15;62.56
64675;BME280;51090;51.512;11.332;2023-03-08T10:47:30;97420.25;;;11.01;63.26
64675;BME280;51090;51.512;11.332;2023-03-08T10:50:18;97443.81;;;11.43;61.50
64675;BME280;51090;51.512;11.332;2023-03-08T10:52:46;97447.69;;;11.52;63.39
64675;BME280;51090;51.512;11.332;2023-03-08T10:55:17;97437.88;;;11.52;61.81
64675;BME280;51090;51.512;11.332;2023-03-08T10:57:59;97433.84;;;11.50;58.23
64675;BME280;51090;51.512;11.332;2023-03-08T11:00:38;97418.09;;;11.60;58.83
64675;BME280;51090;51.512;11.332;2023-03-08T11:03:20;97416.34;;;11.83;58.61
64675;BME280;51090;51.512;11.332;2023-03-08T11:05:58;97412.63;;;11.84;58.07
64675;BME280;51090;51.512;11.332;2023-03-08T11:08:34;97417.56;;;11.92;59.65
64675;BME280;51090;51.512;11.332;2023-03-08T11:11:08;97414.97;;;11.80;58.08
64675;BME280;51090;51.512;11.332;2023-03-08T11:13:43;97406.53;;;11.66;59.33
64675;BME280;51090;51.512;11.332;2023-03-08T11:16:44;97419.25;;;11.64;58.93
64675;BME280;51090;51.512;11.332;2023-03-08T11:19:49;97411.09;;;11.54;58.47
64675;BME280;51090;51.512;11.332;2023-03-08T11:22:45;97406.03;;;11.36;59.35
64675;BME280;51090;51.512;11.332;2023-03-08T11:25:35;97392.16;;;11.17;60.35
64675;BME280;51090;51.512;11.332;2023-03-08T11:34:09;97386.53;;;10.84;59.98
64675;BME280;51090;51.512;11.332;2023-03-08T11:36:49;97385.69;;;10.67;62.14
64675;BME280;51090;51.512;11.332;2023-03-08T11:39:47;97378.00;;;10.54;62.38
64675;BME280;51090;51.512;11.332;2023-03-08T11:42:37;97385.84;;;10.49;63.11
64675;BME280;51090;51.512;11.332;2023-03-08T11:45:34;97373.63;;;10.48;63.75
64675;BME280;51090;51.512;11.332;2023-03-08T11:48:34;97383.63;;;10.57;63.63
64675;BME280;51090;51.512;11.332;2023-03-08T11:52:03;97383.41;;;10.59;62.95
64675;BME280;51090;51.512;11.332;2023-03-08T11:57:03;97389.97;;;10.56;64.25
64675;BME280;51090;51.512;11.332;2023-03-08T11:59:35;97389.72;;;10.58;64.86
64675;BME280;51090;51.512;11.332;2023-03-08T12:04:40;97379.69;;;10.60;64.04
64675;BME280;51090;51.512;11.332;2023-03-08T12:13:14;97375.16;;;11.01;64.12
64675;BME280;51090;51.512;11.332;2023-03-08T12:16:04;97375.44;;;11.16;61.51
64675;BME280;51090;51.512;11.332;2023-03-08T12:18:54;97371.63;;;11.12;60.38
64675;BME280;51090;51.512;11.332;2023-03-08T12:21:41;97378.31;;;11.15;61.32
64675;BME280;51090;51.512;11.332;2023-03-08T12:24:36;97370.69;;;11.18;60.83
64675;BME280;51090;51.512;11.332;2023-03-08T12:30:02;97371.28;;;11.20;61.10
64675;BME280;51090;51.512;11.332;2023-03-08T12:32:30;97362.56;;;11.25;63.79
64675;BME280;51090;51.512;11.332;2023-03-08T12:35:24;97358.59;;;11.56;61.06
64675;BME280;51090;51.512;11.332;2023-03-08T12:38:38;97347.22;;;11.77;57.71
64675;BME280;51090;51.512;11.332;2023-03-08T12:41:30;97355.38;;;11.88;58.48
64675;BME280;51090;51.512;11.332;2023-03-08T12:44:26;97352.53;;;11.94;58.41
64675;BME280;51090;51.512;11.332;2023-03-08T12:46:58;97356.41;;;11.87;59.90
64675;BME280;51090;51.512;11.332;2023-03-08T12:49:36;97350.75;;;12.00;58.98
64675;BME280;51090;51.512;11.332;2023-03-08T12:55:01;97334.66;;;12.29;57.21
64675;BME280;51090;51.512;11.332;2023-03-08T12:57:37;97335.28;;;12.36;58.38
64675;BME280;51090;51.512;11.332;2023-03-08T13:00:29;97331.13;;;12.45;55.44
64675;BME280;51090;51.512;11.332;2023-03-08T13:05:35;97326.81;;;12.39;56.55
64675;BME280;51090;51.512;11.332;2023-03-08T13:18:42;97331.13;;;11.00;58.74
64675;BME280;51090;51.512;11.332;2023-03-08T13:27:18;97330.00;;;10.38;60.73
64675;BME280;51090;51.512;11.332;2023-03-08T13:29:46;97306.53;;;10.18;62.39
64675;BME280;51090;51.512;11.332;2023-03-08T13:32:20;97311.81;;;10.18;60.82
64675;BME280;51090;51.512;11.332;2023-03-08T13:35:02;97308.47;;;10.23;61.53
64675;BME280;51090;51.512;11.332;2023-03-08T13:37:29;97308.84;;;10.15;63.31
64675;BME280;51090;51.512;11.332;2023-03-08T13:39:59;97309.28;;;10.23;62.80
64675;BME280;51090;51.512;11.332;2023-03-08T13:42:27;97315.84;;;10.21;62.99
64675;BME280;51090;51.512;11.332;2023-03-08T13:45:17;97313.75;;;10.23;60.63
64675;BME280;51090;51.512;11.332;2023-03-08T13:47:43;97311.59;;;10.08;62.96
64675;BME280;51090;51.512;11.332;2023-03-08T13:50:46;97292.94;;;10.15;61.36
64675;BME280;51090;51.512;11.332;2023-03-08T13:53:25;97290.31;;;10.15;62.64
64675;BME280;51090;51.512;11.332;2023-03-08T13:55:56;97306.31;;;10.08;63.20
64675;BME280;51090;51.512;11.332;2023-03-08T13:58:38;97308.72;;;10.10;63.06
64675;BME280;51090;51.512;11.332;2023-03-08T14:01:17;97308.13;;;10.19;62.57
64675;BME280;51090;51.512;11.332;2023-03-08T14:03:45;97309.06;;;10.01;64.43
64675;BME280;51090;51.512;11.332;2023-03-08T14:06:26;97298.72;;;10.00;64.07
64675;BME280;51090;51.512;11.332;2023-03-08T14:08:54;97286.56;;;9.87;65.62
64675;BME280;51090;51.512;11.332;2023-03-08T14:11:33;97289.41;;;9.97;64.60
64675;BME280;51090;51.512;11.332;2023-03-08T14:14:02;97285.38;;;9.95;65.96
64675;BME280;51090;51.512;11.332;2023-03-08T14:16:35;97286.50;;;9.99;63.94